sensor_id;sensor_type;location;lat;lon;timestamp;temperature;humidity
8988;DHT22;4529;51.360;12.474;2024-02-28T00:03:42;6.30;99.90
8988;DHT22;4529;51.360;12.474;2024-02-28T00:08:46;6.30;99.90
8988;DHT22;4529;51.360;12.474;2024-02-28T00:13:50;6.30;99.90
8988;DHT22;4529;51.360;12.474;2024-02-28T00:18:54;6.30;99.90
8988;DHT22;4529;51.360;12.474;2024-02-28T00:23:58;6.30;99.90
8988;DHT22;4529;51.360;12.474;2024-02-28T00:29:02;6.20;99.90
8988;DHT22;4529;51.360;12.474;2024-02-28T00:34:07;6.30;99.90
8988;DHT22;4529;51.360;12.474;2024-02-28T00:39:10;6.30;99.90
8988;DHT22;4529;51.360;12.474;2024-02-28T00:44:13;6.20;99.90
8988;DHT22;4529;51.360;12.474;2024-02-28T00:49:17;6.30;99.90
8988;DHT22;4529;51.360;12.474;2024-02-28T00:54:20;6.30;99.90
8988;DHT22;4529;51.360;12.474;2024-02-28T00:59:24;6.30;99.90
8988;DHT22;4529;51.360;12.474;2024-02-28T01:04:27;6.30;99.90
8988;DHT22;4529;51.360;12.474;2024-02-28T01:09:31;6.30;99.90
8988;DHT22;4529;51.360;12.474;2024-02-28T01:14:35;6.30;99.90
8988;DHT22;4529;51.360;12.474;2024-02-28T01:19:39;6.30;99.90
8988;DHT22;4529;51.360;12.474;2024-02-28T01:24:43;6.30;99.90
8988;DHT22;4529;51.360;12.474;2024-02-28T01:29:47;6.30;99.90
8988;DHT22;4529;51.360;12.474;2024-02-28T01:34:51;6.30;99.90
8988;DHT22;4529;51.360;12.474;2024-02-28T01:39:55;6.30;99.90
8988;DHT22;4529;51.360;12.474;2024-02-28T01:44:58;6.30;99.90
8988;DHT22;4529;51.360;12.474;2024-02-28T01:50:02;6.30;99.90
8988;DHT22;4529;51.360;12.474;2024-02-28T01:55:07;6.30;99.90
8988;DHT22;4529;51.360;12.474;2024-02-28T02:00:10;6.20;99.90
8988;DHT22;4529;51.360;12.474;2024-02-28T02:05:14;6.30;99.90
8988;DHT22;4529;51.360;12.474;2024-02-28T02:10:18;6.30;99.90
8988;DHT22;4529;51.360;12.474;2024-02-28T02:15:22;6.30;99.90
8988;DHT22;4529;51.360;12.474;2024-02-28T02:20:25;6.30;99.90
8988;DHT22;4529;51.360;12.474;2024-02-28T02:25:29;6.30;99.90
8988;DHT22;4529;51.360;12.474;2024-02-28T02:30:32;6.30;99.90
8988;DHT22;4529;51.360;12.474;2024-02-28T02:35:36;6.30;99.90
8988;DHT22;4529;51.360;12.474;2024-02-28T02:40:39;6.30;99.90
8988;DHT22;4529;51.360;12.474;2024-02-28T02:45:43;6.30;99.90
8988;DHT22;4529;51.360;12.474;2024-02-28T02:50:47;6.30;99.90
8988;DHT22;4529;51.360;12.474;2024-02-28T02:55:50;6.30;99.90
8988;DHT22;4529;51.360;12.474;2024-02-28T03:00:54;6.30;99.90
8988;DHT22;4529;51.360;12.474;2024-02-28T03:05:58;6.30;99.90
8988;DHT22;4529;51.360;12.474;2024-02-28T03:11:02;6.30;99.90
8988;DHT22;4529;51.360;12.474;2024-02-28T03:16:06;6.30;99.90
8988;DHT22;4529;51.360;12.474;2024-02-28T03:21:09;6.20;99.90
8988;DHT22;4529;51.360;12.474;2024-02-28T03:26:13;6.20;99.90
8988;DHT22;4529;51.360;12.474;2024-02-28T03:31:17;6.20;99.90
8988;DHT22;4529;51.360;12.474;2024-02-28T03:36:21;6.10;99.90
8988;DHT22;4529;51.360;12.474;2024-02-28T03:41:25;6.10;99.90
8988;DHT22;4529;51.360;12.474;2024-02-28T03:46:29;6.10;99.90
8988;DHT22;4529;51.360;12.474;2024-02-28T03:51:39;6.10;99.90
8988;DHT22;4529;51.360;12.474;2024-02-28T03:56:38;6.10;99.90
8988;DHT22;4529;51.360;12.474;2024-02-28T04:01:42;6.00;99.90
8988;DHT22;4529;51.360;12.474;2024-02-28T04:06:46;6.10;99.90
8988;DHT22;4529;51.360;12.474;2024-02-28T04:11:50;6.00;99.90
8988;DHT22;4529;51.360;12.474;2024-02-28T04:16:54;6.00;99.90
8988;DHT22;4529;51.360;12.474;2024-02-28T04:21:57;6.00;99.90
8988;DHT22;4529;51.360;12.474;2024-02-28T04:27:00;6.00;99.90
8988;DHT22;4529;51.360;12.474;2024-02-28T04:32:05;6.00;99.90
8988;DHT22;4529;51.360;12.474;2024-02-28T04:37:09;6.00;99.90
8988;DHT22;4529;51.360;12.474;2024-02-28T04:42:13;6.00;99.90
8988;DHT22;4529;51.360;12.474;2024-02-28T04:47:16;6.00;99.90
8988;DHT22;4529;51.360;12.474;2024-02-28T04:52:20;5.90;99.90
8988;DHT22;4529;51.360;12.474;2024-02-28T04:57:24;5.90;99.90
8988;DHT22;4529;51.360;12.474;2024-02-28T05:02:28;5.90;99.90
8988;DHT22;4529;51.360;12.474;2024-02-28T05:07:33;5.90;99.90
8988;DHT22;4529;51.360;12.474;2024-02-28T05:12:38;5.90;99.90
8988;DHT22;4529;51.360;12.474;2024-02-28T05:17:41;5.90;99.90
8988;DHT22;4529;51.360;12.474;2024-02-28T05:22:45;5.80;99.90
8988;DHT22;4529;51.360;12.474;2024-02-28T05:27:49;5.80;99.90
8988;DHT22;4529;51.360;12.474;2024-02-28T05:32:53;5.80;99.90
8988;DHT22;4529;51.360;12.474;2024-02-28T05:37:57;5.80;99.90
8988;DHT22;4529;51.360;12.474;2024-02-28T05:43:01;5.70;99.90
8988;DHT22;4529;51.360;12.474;2024-02-28T05:48:04;5.70;99.90
8988;DHT22;4529;51.360;12.474;2024-02-28T05:53:08;5.70;99.90
8988;DHT22;4529;51.360;12.474;2024-02-28T05:58:11;5.70;99.90
8988;DHT22;4529;51.360;12.474;2024-02-28T06:03:15;5.70;99.90
8988;DHT22;4529;51.360;12.474;2024-02-28T06:08:19;5.70;99.90
8988;DHT22;4529;51.360;12.474;2024-02-28T06:13:22;5.70;99.90
8988;DHT22;4529;51.360;12.474;2024-02-28T06:18:26;5.70;99.90
8988;DHT22;4529;51.360;12.474;2024-02-28T06:23:30;5.80;99.90
8988;DHT22;4529;51.360;12.474;2024-02-28T06:28:34;5.80;99.90
8988;DHT22;4529;51.360;12.474;2024-02-28T06:33:38;5.80;99.90
8988;DHT22;4529;51.360;12.474;2024-02-28T06:38:42;5.70;99.90
8988;DHT22;4529;51.360;12.474;2024-02-28T06:43:46;5.70;99.90
8988;DHT22;4529;51.360;12.474;2024-02-28T06:48:50;5.70;99.90
8988;DHT22;4529;51.360;12.474;2024-02-28T06:53:55;5.60;99.90
8988;DHT22;4529;51.360;12.474;2024-02-28T06:58:59;5.60;99.90
8988;DHT22;4529;51.360;12.474;2024-02-28T07:04:02;5.60;99.90
8988;DHT22;4529;51.360;12.474;2024-02-28T07:09:08;5.60;99.90
8988;DHT22;4529;51.360;12.474;2024-02-28T07:14:11;5.70;99.90
8988;DHT22;4529;51.360;12.474;2024-02-28T07:19:15;5.60;99.90
8988;DHT22;4529;51.360;12.474;2024-02-28T07:24:19;5.70;99.90
8988;DHT22;4529;51.360;12.474;2024-02-28T07:29:23;5.70;99.90
8988;DHT22;4529;51.360;12.474;2024-02-28T07:34:27;5.60;99.90
8988;DHT22;4529;51.360;12.474;2024-02-28T07:39:31;5.60;99.90
8988;DHT22;4529;51.360;12.474;2024-02-28T07:44:36;5.60;99.90
8988;DHT22;4529;51.360;12.474;2024-02-28T07:49:40;5.60;99.90
8988;DHT22;4529;51.360;12.474;2024-02-28T07:54:44;5.60;99.90
8988;DHT22;4529;51.360;12.474;2024-02-28T07:59:47;5.60;99.90
8988;DHT22;4529;51.360;12.474;2024-02-28T08:04:51;5.40;99.90
8988;DHT22;4529;51.360;12.474;2024-02-28T08:09:54;5.30;99.90
8988;DHT22;4529;51.360;12.474;2024-02-28T08:14:58;5.20;99.90
8988;DHT22;4529;51.360;12.474;2024-02-28T08:20:01;5.20;99.90
8988;DHT22;4529;51.360;12.474;2024-02-28T08:25:05;5.20;99.90
8988;DHT22;4529;51.360;12.474;2024-02-28T08:30:10;5.40;99.90
8988;DHT22;4529;51.360;12.474;2024-02-28T08:35:13;5.40;99.90
8988;DHT22;4529;51.360;12.474;2024-02-28T08:40:16;5.70;99.90
8988;DHT22;4529;51.360;12.474;2024-02-28T08:45:20;5.80;99.90
8988;DHT22;4529;51.360;12.474;2024-02-28T08:50:24;5.90;99.90
8988;DHT22;4529;51.360;12.474;2024-02-28T08:55:28;6.10;99.90
8988;DHT22;4529;51.360;12.474;2024-02-28T09:00:32;6.30;99.90
8988;DHT22;4529;51.360;12.474;2024-02-28T09:05:36;6.30;99.90
8988;DHT22;4529;51.360;12.474;2024-02-28T09:10:40;6.50;99.90
8988;DHT22;4529;51.360;12.474;2024-02-28T09:15:45;6.50;99.90
8988;DHT22;4529;51.360;12.474;2024-02-28T09:20:49;6.60;99.90
8988;DHT22;4529;51.360;12.474;2024-02-28T09:25:52;6.60;99.90
8988;DHT22;4529;51.360;12.474;2024-02-28T09:30:56;6.70;99.90
8988;DHT22;4529;51.360;12.474;2024-02-28T09:36:01;6.70;99.90
8988;DHT22;4529;51.360;12.474;2024-02-28T09:41:03;6.80;99.90
8988;DHT22;4529;51.360;12.474;2024-02-28T09:46:06;6.90;99.90
8988;DHT22;4529;51.360;12.474;2024-02-28T09:51:09;6.90;99.90
8988;DHT22;4529;51.360;12.474;2024-02-28T09:56:13;7.10;99.90
8988;DHT22;4529;51.360;12.474;2024-02-28T10:01:17;7.30;99.90
8988;DHT22;4529;51.360;12.474;2024-02-28T10:06:21;7.40;99.90
8988;DHT22;4529;51.360;12.474;2024-02-28T10:11:25;7.60;99.90
8988;DHT22;4529;51.360;12.474;2024-02-28T10:16:29;7.60;99.90
8988;DHT22;4529;51.360;12.474;2024-02-28T10:21:33;7.70;99.90
8988;DHT22;4529;51.360;12.474;2024-02-28T10:26:46;7.80;99.90
8988;DHT22;4529;51.360;12.474;2024-02-28T10:31:50;7.80;99.90
8988;DHT22;4529;51.360;12.474;2024-02-28T10:36:53;7.70;99.90
8988;DHT22;4529;51.360;12.474;2024-02-28T10:41:57;7.80;99.90
8988;DHT22;4529;51.360;12.474;2024-02-28T10:47:00;8.00;99.90
8988;DHT22;4529;51.360;12.474;2024-02-28T10:52:05;8.30;99.90
8988;DHT22;4529;51.360;12.474;2024-02-28T10:57:08;8.30;99.90
8988;DHT22;4529;51.360;12.474;2024-02-28T11:02:12;8.70;99.90
8988;DHT22;4529;51.360;12.474;2024-02-28T11:07:19;8.90;99.90
8988;DHT22;4529;51.360;12.474;2024-02-28T11:12:29;9.00;99.90
8988;DHT22;4529;51.360;12.474;2024-02-28T11:17:32;9.00;99.90
8988;DHT22;4529;51.360;12.474;2024-02-28T11:22:37;9.20;99.90
8988;DHT22;4529;51.360;12.474;2024-02-28T11:27:49;9.20;99.90
8988;DHT22;4529;51.360;12.474;2024-02-28T11:32:53;9.20;99.90
8988;DHT22;4529;51.360;12.474;2024-02-28T11:37:56;9.20;99.90
8988;DHT22;4529;51.360;12.474;2024-02-28T11:43:00;9.30;99.90
8988;DHT22;4529;51.360;12.474;2024-02-28T11:48:04;9.30;99.90
8988;DHT22;4529;51.360;12.474;2024-02-28T11:53:08;9.40;99.90
8988;DHT22;4529;51.360;12.474;2024-02-28T11:58:11;9.50;99.90
8988;DHT22;4529;51.360;12.474;2024-02-28T12:03:15;9.60;99.90
8988;DHT22;4529;51.360;12.474;2024-02-28T12:08:18;9.50;99.90
8988;DHT22;4529;51.360;12.474;2024-02-28T12:13:22;9.60;99.90
8988;DHT22;4529;51.360;12.474;2024-02-28T12:18:25;9.70;99.90
8988;DHT22;4529;51.360;12.474;2024-02-28T12:23:29;9.80;99.90
8988;DHT22;4529;51.360;12.474;2024-02-28T12:28:33;9.90;99.90
8988;DHT22;4529;51.360;12.474;2024-02-28T12:33:37;10.00;99.90
8988;DHT22;4529;51.360;12.474;2024-02-28T12:38:41;10.00;99.90
8988;DHT22;4529;51.360;12.474;2024-02-28T12:43:44;9.90;99.90
8988;DHT22;4529;51.360;12.474;2024-02-28T12:48:48;9.90;99.90
8988;DHT22;4529;51.360;12.474;2024-02-28T12:53:51;9.90;99.90
8988;DHT22;4529;51.360;12.474;2024-02-28T12:58:55;9.90;99.90
8988;DHT22;4529;51.360;12.474;2024-02-28T13:03:59;10.00;99.90
8988;DHT22;4529;51.360;12.474;2024-02-28T13:09:04;10.00;99.90
8988;DHT22;4529;51.360;12.474;2024-02-28T13:14:07;10.00;99.90
8988;DHT22;4529;51.360;12.474;2024-02-28T13:19:11;10.00;99.90
8988;DHT22;4529;51.360;12.474;2024-02-28T13:24:15;10.10;99.90
8988;DHT22;4529;51.360;12.474;2024-02-28T13:29:19;10.10;99.90
8988;DHT22;4529;51.360;12.474;2024-02-28T13:34:24;10.00;99.90
8988;DHT22;4529;51.360;12.474;2024-02-28T13:39:28;10.00;99.90
8988;DHT22;4529;51.360;12.474;2024-02-28T13:44:32;10.10;99.90
8988;DHT22;4529;51.360;12.474;2024-02-28T13:49:35;10.10;99.90
8988;DHT22;4529;51.360;12.474;2024-02-28T13:54:39;10.10;99.90
8988;DHT22;4529;51.360;12.474;2024-02-28T13:59:42;10.10;99.90
8988;DHT22;4529;51.360;12.474;2024-02-28T14:04:46;10.10;99.90
8988;DHT22;4529;51.360;12.474;2024-02-28T14:09:51;10.20;99.90
8988;DHT22;4529;51.360;12.474;2024-02-28T14:14:55;10.20;99.90
8988;DHT22;4529;51.360;12.474;2024-02-28T14:19:59;10.20;99.90
8988;DHT22;4529;51.360;12.474;2024-02-28T14:25:03;10.20;99.90
8988;DHT22;4529;51.360;12.474;2024-02-28T14:30:11;10.20;99.90
8988;DHT22;4529;51.360;12.474;2024-02-28T14:35:13;10.20;99.90
8988;DHT22;4529;51.360;12.474;2024-02-28T14:40:18;10.20;99.90
8988;DHT22;4529;51.360;12.474;2024-02-28T14:45:22;10.20;99.90
8988;DHT22;4529;51.360;12.474;2024-02-28T14:50:25;10.20;99.90
8988;DHT22;4529;51.360;12.474;2024-02-28T14:55:29;10.20;99.90
8988;DHT22;4529;51.360;12.474;2024-02-28T15:00:32;10.20;99.90
8988;DHT22;4529;51.360;12.474;2024-02-28T15:05:36;10.20;99.90
8988;DHT22;4529;51.360;12.474;2024-02-28T15:10:39;10.20;99.90
8988;DHT22;4529;51.360;12.474;2024-02-28T15:15:42;10.20;99.90
8988;DHT22;4529;51.360;12.474;2024-02-28T15:20:46;10.20;99.90
8988;DHT22;4529;51.360;12.474;2024-02-28T15:25:49;10.20;99.90
8988;DHT22;4529;51.360;12.474;2024-02-28T15:30:53;10.10;99.90
8988;DHT22;4529;51.360;12.474;2024-02-28T15:35:56;10.20;99.90
8988;DHT22;4529;51.360;12.474;2024-02-28T15:41:00;10.10;99.90
8988;DHT22;4529;51.360;12.474;2024-02-28T15:46:04;10.00;99.90
8988;DHT22;4529;51.360;12.474;2024-02-28T15:51:08;10.00;99.90
8988;DHT22;4529;51.360;12.474;2024-02-28T15:56:12;10.00;99.90
8988;DHT22;4529;51.360;12.474;2024-02-28T16:01:16;10.00;99.90
8988;DHT22;4529;51.360;12.474;2024-02-28T16:06:20;9.90;99.90
8988;DHT22;4529;51.360;12.474;2024-02-28T16:11:24;9.90;99.90
8988;DHT22;4529;51.360;12.474;2024-02-28T16:16:28;9.80;99.90
8988;DHT22;4529;51.360;12.474;2024-02-28T16:21:32;9.70;99.90
8988;DHT22;4529;51.360;12.474;2024-02-28T16:26:37;9.60;99.90
8988;DHT22;4529;51.360;12.474;2024-02-28T16:31:41;9.50;99.90
8988;DHT22;4529;51.360;12.474;2024-02-28T16:36:45;9.40;99.90
8988;DHT22;4529;51.360;12.474;2024-02-28T16:41:48;9.40;99.90
8988;DHT22;4529;51.360;12.474;2024-02-28T16:46:52;9.20;99.90
8988;DHT22;4529;51.360;12.474;2024-02-28T16:51:55;9.10;99.90
8988;DHT22;4529;51.360;12.474;2024-02-28T16:56:59;8.90;99.90
8988;DHT22;4529;51.360;12.474;2024-02-28T17:02:04;8.80;99.90
8988;DHT22;4529;51.360;12.474;2024-02-28T17:07:07;8.80;99.90
8988;DHT22;4529;51.360;12.474;2024-02-28T17:12:11;8.70;99.90
8988;DHT22;4529;51.360;12.474;2024-02-28T17:17:14;8.60;99.90
8988;DHT22;4529;51.360;12.474;2024-02-28T17:22:18;8.40;99.90
8988;DHT22;4529;51.360;12.474;2024-02-28T17:27:21;8.30;99.90
8988;DHT22;4529;51.360;12.474;2024-02-28T17:32:24;8.10;99.90
8988;DHT22;4529;51.360;12.474;2024-02-28T17:37:29;7.80;99.90
8988;DHT22;4529;51.360;12.474;2024-02-28T17:42:33;7.60;99.90
8988;DHT22;4529;51.360;12.474;2024-02-28T17:47:37;7.40;99.90
8988;DHT22;4529;51.360;12.474;2024-02-28T17:52:42;7.30;99.90
8988;DHT22;4529;51.360;12.474;2024-02-28T17:57:44;7.30;99.90
8988;DHT22;4529;51.360;12.474;2024-02-28T18:02:48;7.10;99.90
8988;DHT22;4529;51.360;12.474;2024-02-28T18:07:51;7.00;99.90
8988;DHT22;4529;51.360;12.474;2024-02-28T18:12:55;6.90;99.90
8988;DHT22;4529;51.360;12.474;2024-02-28T18:17:58;6.70;99.90
8988;DHT22;4529;51.360;12.474;2024-02-28T18:23:02;6.60;99.90
8988;DHT22;4529;51.360;12.474;2024-02-28T18:28:06;6.50;99.90
8988;DHT22;4529;51.360;12.474;2024-02-28T18:33:11;6.40;99.90
8988;DHT22;4529;51.360;12.474;2024-02-28T18:38:15;6.30;99.90
8988;DHT22;4529;51.360;12.474;2024-02-28T18:43:19;6.30;99.90
8988;DHT22;4529;51.360;12.474;2024-02-28T18:48:23;6.20;99.90
8988;DHT22;4529;51.360;12.474;2024-02-28T18:53:26;6.20;99.90
8988;DHT22;4529;51.360;12.474;2024-02-28T18:58:30;6.10;99.90
8988;DHT22;4529;51.360;12.474;2024-02-28T19:03:33;6.00;99.90
8988;DHT22;4529;51.360;12.474;2024-02-28T19:08:37;5.90;99.90
8988;DHT22;4529;51.360;12.474;2024-02-28T19:13:40;5.80;99.90
8988;DHT22;4529;51.360;12.474;2024-02-28T19:18:44;5.80;99.90
8988;DHT22;4529;51.360;12.474;2024-02-28T19:23:47;5.70;99.90
8988;DHT22;4529;51.360;12.474;2024-02-28T19:28:51;5.70;99.90
8988;DHT22;4529;51.360;12.474;2024-02-28T19:33:54;5.60;99.90
8988;DHT22;4529;51.360;12.474;2024-02-28T19:38:58;5.50;99.90
8988;DHT22;4529;51.360;12.474;2024-02-28T19:44:02;5.40;99.90
8988;DHT22;4529;51.360;12.474;2024-02-28T19:49:06;5.40;99.90
8988;DHT22;4529;51.360;12.474;2024-02-28T19:54:11;5.30;99.90
8988;DHT22;4529;51.360;12.474;2024-02-28T19:59:15;5.30;99.90
8988;DHT22;4529;51.360;12.474;2024-02-28T20:04:19;5.20;99.90
8988;DHT22;4529;51.360;12.474;2024-02-28T20:09:23;5.10;99.90
8988;DHT22;4529;51.360;12.474;2024-02-28T20:14:27;5.00;99.90
8988;DHT22;4529;51.360;12.474;2024-02-28T20:19:31;5.00;99.90
8988;DHT22;4529;51.360;12.474;2024-02-28T20:24:34;5.00;99.90
8988;DHT22;4529;51.360;12.474;2024-02-28T20:29:38;4.90;99.90
8988;DHT22;4529;51.360;12.474;2024-02-28T20:34:41;4.80;99.90
8988;DHT22;4529;51.360;12.474;2024-02-28T20:39:45;4.80;99.90
8988;DHT22;4529;51.360;12.474;2024-02-28T20:44:49;4.70;99.90
8988;DHT22;4529;51.360;12.474;2024-02-28T20:49:53;4.80;99.90
8988;DHT22;4529;51.360;12.474;2024-02-28T20:54:58;4.70;99.90
8988;DHT22;4529;51.360;12.474;2024-02-28T21:00:02;4.70;99.90
8988;DHT22;4529;51.360;12.474;2024-02-28T21:05:05;4.70;99.90
8988;DHT22;4529;51.360;12.474;2024-02-28T21:10:09;4.70;99.90
8988;DHT22;4529;51.360;12.474;2024-02-28T21:15:13;4.60;99.90
8988;DHT22;4529;51.360;12.474;2024-02-28T21:20:17;4.60;99.90
8988;DHT22;4529;51.360;12.474;2024-02-28T21:25:21;4.60;99.90
8988;DHT22;4529;51.360;12.474;2024-02-28T21:30:24;4.60;99.90
8988;DHT22;4529;51.360;12.474;2024-02-28T21:35:28;4.60;99.90
8988;DHT22;4529;51.360;12.474;2024-02-28T21:40:31;4.60;99.90
8988;DHT22;4529;51.360;12.474;2024-02-28T21:45:35;4.60;99.90
8988;DHT22;4529;51.360;12.474;2024-02-28T21:50:38;4.60;99.90
8988;DHT22;4529;51.360;12.474;2024-02-28T21:55:42;4.60;99.90
8988;DHT22;4529;51.360;12.474;2024-02-28T22:00:45;4.70;99.90
8988;DHT22;4529;51.360;12.474;2024-02-28T22:05:49;4.80;99.90
8988;DHT22;4529;51.360;12.474;2024-02-28T22:10:53;4.80;99.90
8988;DHT22;4529;51.360;12.474;2024-02-28T22:15:58;4.80;99.90
8988;DHT22;4529;51.360;12.474;2024-02-28T22:21:02;4.80;99.90
8988;DHT22;4529;51.360;12.474;2024-02-28T22:26:06;4.80;99.90
8988;DHT22;4529;51.360;12.474;2024-02-28T22:31:10;4.70;99.90
8988;DHT22;4529;51.360;12.474;2024-02-28T22:36:13;4.80;99.90
8988;DHT22;4529;51.360;12.474;2024-02-28T22:41:23;4.70;99.90
8988;DHT22;4529;51.360;12.474;2024-02-28T22:46:26;4.70;99.90
8988;DHT22;4529;51.360;12.474;2024-02-28T22:51:32;4.70;99.90
8988;DHT22;4529;51.360;12.474;2024-02-28T22:56:36;4.60;99.90
8988;DHT22;4529;51.360;12.474;2024-02-28T23:01:40;4.50;99.90
8988;DHT22;4529;51.360;12.474;2024-02-28T23:06:44;4.50;99.90
8988;DHT22;4529;51.360;12.474;2024-02-28T23:11:48;4.50;99.90
8988;DHT22;4529;51.360;12.474;2024-02-28T23:16:51;4.40;99.90
8988;DHT22;4529;51.360;12.474;2024-02-28T23:21:55;4.50;99.90
8988;DHT22;4529;51.360;12.474;2024-02-28T23:26:58;4.40;99.90
8988;DHT22;4529;51.360;12.474;2024-02-28T23:32:02;4.30;99.90
8988;DHT22;4529;51.360;12.474;2024-02-28T23:37:05;4.30;99.90
8988;DHT22;4529;51.360;12.474;2024-02-28T23:42:09;4.30;99.90
8988;DHT22;4529;51.360;12.474;2024-02-28T23:47:13;4.30;99.90
8988;DHT22;4529;51.360;12.474;2024-02-28T23:52:17;4.20;99.90
8988;DHT22;4529;51.360;12.474;2024-02-28T23:57:21;4.20;99.90
